sensor_id;sensor_type;location;lat;lon;timestamp;pressure;altitude;pressure_sealevel;temperature;humidity
23427;BME280;41148;45.420;10.952;2023-05-22T00:01:45;100486.25;;;21.10;52.15
23427;BME280;41148;45.420;10.952;2023-05-22T00:04:15;100464.66;;;20.98;52.61
23427;BME280;41148;45.420;10.952;2023-05-22T00:06:48;100471.25;;;20.94;52.72
23427;BME280;41148;45.420;10.952;2023-05-22T00:09:16;100480.72;;;20.88;53.20
23427;BME280;41148;45.420;10.952;2023-05-22T00:11:44;100485.16;;;20.89;52.67
23427;BME280;41148;45.420;10.952;2023-05-22T00:14:11;100468.50;;;20.82;53.13
23427;BME280;41148;45.420;10.952;2023-05-22T00:16:42;100490.22;;;20.94;52.40
23427;BME280;41148;45.420;10.952;2023-05-22T00:19:10;100486.56;;;20.95;52.68
23427;BME280;41148;45.420;10.952;2023-05-22T00:21:43;100489.88;;;20.98;52.03
23427;BME280;41148;45.420;10.952;2023-05-22T00:24:10;100484.59;;;20.97;51.96
23427;BME280;41148;45.420;10.952;2023-05-22T00:26:38;100487.69;;;21.03;51.88
23427;BME280;41148;45.420;10.952;2023-05-22T00:29:06;100488.47;;;21.05;51.59
23427;BME280;41148;45.420;10.952;2023-05-22T00:31:33;100472.34;;;21.04;51.44
23427;BME280;41148;45.420;10.952;2023-05-22T00:34:01;100481.50;;;21.14;51.30
23427;BME280;41148;45.420;10.952;2023-05-22T00:36:28;100481.25;;;21.17;51.42
23427;BME280;41148;45.420;10.952;2023-05-22T00:38:56;100473.56;;;21.11;51.15
23427;BME280;41148;45.420;10.952;2023-05-22T00:41:23;100479.53;;;21.16;51.17
23427;BME280;41148;45.420;10.952;2023-05-22T00:43:50;100479.53;;;21.16;51.32
23427;BME280;41148;45.420;10.952;2023-05-22T00:46:21;100483.09;;;21.17;51.25
23427;BME280;41148;45.420;10.952;2023-05-22T00:48:51;100475.97;;;21.15;51.11
23427;BME280;41148;45.420;10.952;2023-05-22T00:51:20;100478.19;;;21.22;50.55
23427;BME280;41148;45.420;10.952;2023-05-22T00:53:48;100485.13;;;21.26;50.47
23427;BME280;41148;45.420;10.952;2023-05-22T00:56:17;100478.97;;;21.24;50.81
23427;BME280;41148;45.420;10.952;2023-05-22T00:58:45;100477.09;;;21.24;50.85
23427;BME280;41148;45.420;10.952;2023-05-22T01:01:13;100486.97;;;21.25;50.73
23427;BME280;41148;45.420;10.952;2023-05-22T01:03:41;100482.13;;;21.18;51.07
23427;BME280;41148;45.420;10.952;2023-05-22T01:06:14;100478.19;;;21.22;50.95
23427;BME280;41148;45.420;10.952;2023-05-22T01:08:44;100472.38;;;21.15;50.97
23427;BME280;41148;45.420;10.952;2023-05-22T01:11:32;100487.16;;;21.22;50.79
23427;BME280;41148;45.420;10.952;2023-05-22T01:14:07;100470.28;;;21.19;50.46
23427;BME280;41148;45.420;10.952;2023-05-22T01:16:55;100478.31;;;21.20;50.69
23427;BME280;41148;45.420;10.952;2023-05-22T01:19:56;100475.59;;;21.20;50.87
23427;BME280;41148;45.420;10.952;2023-05-22T01:31:14;100471.16;;;21.19;50.89
23427;BME280;41148;45.420;10.952;2023-05-22T01:33:58;100468.56;;;21.18;51.23
23427;BME280;41148;45.420;10.952;2023-05-22T01:36:30;100468.16;;;21.11;50.93
23427;BME280;41148;45.420;10.952;2023-05-22T01:39:01;100466.56;;;21.08;51.03
23427;BME280;41148;45.420;10.952;2023-05-22T01:41:33;100474.22;;;21.14;50.68
23427;BME280;41148;45.420;10.952;2023-05-22T01:44:00;100468.03;;;21.12;50.54
23427;BME280;41148;45.420;10.952;2023-05-22T01:46:29;100468.69;;;21.16;50.71
23427;BME280;41148;45.420;10.952;2023-05-22T01:48:58;100477.91;;;21.13;50.76
23427;BME280;41148;45.420;10.952;2023-05-22T01:51:38;100470.00;;;21.10;50.96
23427;BME280;41148;45.420;10.952;2023-05-22T01:54:31;100476.66;;;21.06;50.99
23427;BME280;41148;45.420;10.952;2023-05-22T01:57:09;100475.91;;;21.04;50.71
23427;BME280;41148;45.420;10.952;2023-05-22T01:59:44;100466.38;;;20.99;51.02
23427;BME280;41148;45.420;10.952;2023-05-22T02:02:17;100468.84;;;21.02;50.87
23427;BME280;41148;45.420;10.952;2023-05-22T02:04:51;100467.97;;;21.01;50.68
23427;BME280;41148;45.420;10.952;2023-05-22T02:07:23;100459.25;;;20.98;50.76
23427;BME280;41148;45.420;10.952;2023-05-22T02:09:55;100470.69;;;21.01;51.30
23427;BME280;41148;45.420;10.952;2023-05-22T02:12:24;100467.34;;;20.98;51.07
23427;BME280;41148;45.420;10.952;2023-05-22T02:14:52;100463.13;;;20.94;51.12
23427;BME280;41148;45.420;10.952;2023-05-22T02:17:20;100463.13;;;20.94;51.40
23427;BME280;41148;45.420;10.952;2023-05-22T02:19:48;100457.84;;;20.92;51.37
23427;BME280;41148;45.420;10.952;2023-05-22T02:22:15;100448.47;;;20.85;51.70
23427;BME280;41148;45.420;10.952;2023-05-22T02:24:46;100458.63;;;20.81;51.56
23427;BME280;41148;45.420;10.952;2023-05-22T02:27:15;100451.25;;;20.83;52.10
23427;BME280;41148;45.420;10.952;2023-05-22T02:29:43;100449.88;;;20.78;52.24
23427;BME280;41148;45.420;10.952;2023-05-22T02:32:11;100446.88;;;20.70;52.83
23427;BME280;41148;45.420;10.952;2023-05-22T02:34:38;100443.63;;;20.65;52.73
23427;BME280;41148;45.420;10.952;2023-05-22T02:37:11;100448.13;;;20.53;52.68
23427;BME280;41148;45.420;10.952;2023-05-22T02:39:42;100449.84;;;20.41;53.16
23427;BME280;41148;45.420;10.952;2023-05-22T02:42:10;100452.13;;;20.35;53.74
23427;BME280;41148;45.420;10.952;2023-05-22T02:44:39;100449.69;;;20.19;53.81
23427;BME280;41148;45.420;10.952;2023-05-22T02:47:07;100444.47;;;20.16;54.18
23427;BME280;41148;45.420;10.952;2023-05-22T02:49:34;100440.16;;;20.13;55.13
23427;BME280;41148;45.420;10.952;2023-05-22T02:52:02;100444.28;;;20.19;55.16
23427;BME280;41148;45.420;10.952;2023-05-22T02:54:30;100450.72;;;20.16;55.34
23427;BME280;41148;45.420;10.952;2023-05-22T02:57:01;100445.78;;;20.10;55.70
23427;BME280;41148;45.420;10.952;2023-05-22T02:59:29;100453.34;;;20.05;56.60
23427;BME280;41148;45.420;10.952;2023-05-22T03:01:57;100442.34;;;20.08;56.30
23427;BME280;41148;45.420;10.952;2023-05-22T03:04:25;100445.13;;;19.94;56.76
23427;BME280;41148;45.420;10.952;2023-05-22T03:06:52;100435.94;;;19.84;57.70
23427;BME280;41148;45.420;10.952;2023-05-22T03:09:20;100439.06;;;19.78;57.21
23427;BME280;41148;45.420;10.952;2023-05-22T03:11:49;100438.84;;;19.68;57.59
23427;BME280;41148;45.420;10.952;2023-05-22T03:14:17;100434.97;;;19.59;57.94
23427;BME280;41148;45.420;10.952;2023-05-22T03:16:46;100443.72;;;19.63;58.81
23427;BME280;41148;45.420;10.952;2023-05-22T03:19:15;100440.03;;;19.64;58.62
23427;BME280;41148;45.420;10.952;2023-05-22T03:21:43;100443.84;;;19.61;59.67
23427;BME280;41148;45.420;10.952;2023-05-22T03:24:12;100451.09;;;19.73;59.75
23427;BME280;41148;45.420;10.952;2023-05-22T03:26:40;100453.66;;;19.75;59.96
23427;BME280;41148;45.420;10.952;2023-05-22T03:29:12;100446.88;;;19.69;61.16
23427;BME280;41148;45.420;10.952;2023-05-22T03:31:41;100446.84;;;19.57;61.06
23427;BME280;41148;45.420;10.952;2023-05-22T03:34:12;100433.59;;;19.39;62.37
23427;BME280;41148;45.420;10.952;2023-05-22T03:36:42;100442.47;;;19.41;62.70
23427;BME280;41148;45.420;10.952;2023-05-22T03:39:15;100446.44;;;19.36;62.62
23427;BME280;41148;45.420;10.952;2023-05-22T03:41:53;100441.56;;;19.28;62.77
23427;BME280;41148;45.420;10.952;2023-05-22T03:44:23;100444.59;;;19.24;62.79
23427;BME280;41148;45.420;10.952;2023-05-22T03:46:51;100454.81;;;19.19;62.69
23427;BME280;41148;45.420;10.952;2023-05-22T03:49:20;100450.03;;;19.09;63.06
23427;BME280;41148;45.420;10.952;2023-05-22T03:51:47;100445.50;;;19.10;63.45
23427;BME280;41148;45.420;10.952;2023-05-22T03:54:15;100459.25;;;19.20;64.25
23427;BME280;41148;45.420;10.952;2023-05-22T03:56:43;100449.84;;;19.12;64.03
23427;BME280;41148;45.420;10.952;2023-05-22T03:59:10;100456.53;;;19.20;63.70
23427;BME280;41148;45.420;10.952;2023-05-22T04:01:38;100463.63;;;19.35;62.89
23427;BME280;41148;45.420;10.952;2023-05-22T04:04:07;100466.19;;;19.24;62.78
23427;BME280;41148;45.420;10.952;2023-05-22T04:06:36;100461.00;;;19.21;62.56
23427;BME280;41148;45.420;10.952;2023-05-22T04:09:12;100461.09;;;19.19;62.96
23427;BME280;41148;45.420;10.952;2023-05-22T04:11:40;100455.16;;;19.27;61.85
23427;BME280;41148;45.420;10.952;2023-05-22T04:14:08;100454.53;;;19.23;62.44
23427;BME280;41148;45.420;10.952;2023-05-22T04:16:36;100470.13;;;19.32;62.70
23427;BME280;41148;45.420;10.952;2023-05-22T04:19:04;100473.97;;;19.28;63.15
23427;BME280;41148;45.420;10.952;2023-05-22T04:21:32;100477.13;;;19.35;62.66
23427;BME280;41148;45.420;10.952;2023-05-22T04:24:01;100457.41;;;19.20;62.77
23427;BME280;41148;45.420;10.952;2023-05-22T04:26:34;100454.06;;;19.16;63.40
23427;BME280;41148;45.420;10.952;2023-05-22T04:29:02;100467.28;;;19.21;64.01
23427;BME280;41148;45.420;10.952;2023-05-22T04:31:30;100461.75;;;19.23;63.90
23427;BME280;41148;45.420;10.952;2023-05-22T04:33:58;100476.78;;;19.27;65.16
23427;BME280;41148;45.420;10.952;2023-05-22T04:36:26;100477.75;;;19.26;66.63
23427;BME280;41148;45.420;10.952;2023-05-22T04:38:54;100469.75;;;19.24;66.38
23427;BME280;41148;45.420;10.952;2023-05-22T04:41:21;100476.78;;;19.27;66.11
23427;BME280;41148;45.420;10.952;2023-05-22T04:43:52;100477.34;;;19.32;65.78
23427;BME280;41148;45.420;10.952;2023-05-22T04:46:21;100476.56;;;19.30;65.71
23427;BME280;41148;45.420;10.952;2023-05-22T04:48:49;100484.38;;;19.34;65.31
23427;BME280;41148;45.420;10.952;2023-05-22T04:51:17;100489.16;;;19.43;66.21
23427;BME280;41148;45.420;10.952;2023-05-22T04:53:44;100485.59;;;19.43;65.83
23427;BME280;41148;45.420;10.952;2023-05-22T04:56:13;100491.63;;;19.47;65.76
23427;BME280;41148;45.420;10.952;2023-05-22T04:58:51;100488.91;;;19.61;65.30
23427;BME280;41148;45.420;10.952;2023-05-22T05:01:20;100481.03;;;19.83;65.13
23427;BME280;41148;45.420;10.952;2023-05-22T05:03:49;100476.84;;;19.92;63.91
23427;BME280;41148;45.420;10.952;2023-05-22T05:06:17;100481.81;;;19.98;63.29
23427;BME280;41148;45.420;10.952;2023-05-22T05:08:48;100490.56;;;20.01;64.58
23427;BME280;41148;45.420;10.952;2023-05-22T05:11:16;100480.06;;;20.10;63.43
23427;BME280;41148;45.420;10.952;2023-05-22T05:13:43;100486.25;;;20.12;63.69
23427;BME280;41148;45.420;10.952;2023-05-22T05:16:11;100481.16;;;20.20;63.75
23427;BME280;41148;45.420;10.952;2023-05-22T05:18:39;100474.22;;;20.16;62.65
23427;BME280;41148;45.420;10.952;2023-05-22T05:21:07;100480.16;;;20.34;61.82
23427;BME280;41148;45.420;10.952;2023-05-22T05:23:34;100490.22;;;20.32;61.88
23427;BME280;41148;45.420;10.952;2023-05-22T05:26:02;100478.19;;;20.36;61.92
23427;BME280;41148;45.420;10.952;2023-05-22T05:28:30;100489.81;;;20.38;62.07
23427;BME280;41148;45.420;10.952;2023-05-22T05:30:59;100481.13;;;20.33;62.47
23427;BME280;41148;45.420;10.952;2023-05-22T05:33:46;100485.25;;;20.38;62.84
23427;BME280;41148;45.420;10.952;2023-05-22T05:36:25;100485.59;;;20.46;61.73
23427;BME280;41148;45.420;10.952;2023-05-22T05:38:54;100493.56;;;20.61;61.87
23427;BME280;41148;45.420;10.952;2023-05-22T05:41:23;100481.41;;;20.79;61.99
23427;BME280;41148;45.420;10.952;2023-05-22T05:43:57;100483.00;;;20.94;60.54
23427;BME280;41148;45.420;10.952;2023-05-22T05:46:33;100488.97;;;21.10;60.44
23427;BME280;41148;45.420;10.952;2023-05-22T05:49:07;100489.63;;;21.14;61.01
23427;BME280;41148;45.420;10.952;2023-05-22T05:51:40;100493.63;;;21.08;61.36
23427;BME280;41148;45.420;10.952;2023-05-22T05:54:09;100498.69;;;21.13;59.44
23427;BME280;41148;45.420;10.952;2023-05-22T05:56:38;100494.19;;;21.13;59.67
23427;BME280;41148;45.420;10.952;2023-05-22T05:59:06;100493.75;;;21.07;60.12
23427;BME280;41148;45.420;10.952;2023-05-22T06:01:36;100494.19;;;21.13;60.15
23427;BME280;41148;45.420;10.952;2023-05-22T06:04:11;100487.13;;;21.11;60.20
23427;BME280;41148;45.420;10.952;2023-05-22T06:06:39;100496.16;;;20.99;62.06
23427;BME280;41148;45.420;10.952;2023-05-22T06:09:08;100496.28;;;20.97;62.94
23427;BME280;41148;45.420;10.952;2023-05-22T06:11:58;100499.22;;;20.94;61.51
23427;BME280;41148;45.420;10.952;2023-05-22T06:14:29;100499.31;;;20.93;61.70
23427;BME280;41148;45.420;10.952;2023-05-22T06:16:57;100492.41;;;20.89;61.95
23427;BME280;41148;45.420;10.952;2023-05-22T06:19:25;100502.16;;;20.91;62.06
23427;BME280;41148;45.420;10.952;2023-05-22T06:21:53;100504.22;;;20.88;62.80
23427;BME280;41148;45.420;10.952;2023-05-22T06:24:21;100496.97;;;20.88;64.12
23427;BME280;41148;45.420;10.952;2023-05-22T06:26:49;100510.56;;;20.99;63.04
23427;BME280;41148;45.420;10.952;2023-05-22T06:29:17;100514.03;;;21.01;63.24
23427;BME280;41148;45.420;10.952;2023-05-22T06:31:46;100502.50;;;21.10;62.75
23427;BME280;41148;45.420;10.952;2023-05-22T06:34:17;100506.19;;;21.09;63.17
23427;BME280;41148;45.420;10.952;2023-05-22T06:36:44;100503.59;;;21.08;64.39
23427;BME280;41148;45.420;10.952;2023-05-22T06:39:12;100506.25;;;21.21;63.89
23427;BME280;41148;45.420;10.952;2023-05-22T06:41:58;100507.19;;;21.32;63.27
23427;BME280;41148;45.420;10.952;2023-05-22T06:44:43;100505.81;;;21.51;61.72
23427;BME280;41148;45.420;10.952;2023-05-22T06:47:10;100504.97;;;21.61;61.30
23427;BME280;41148;45.420;10.952;2023-05-22T06:49:38;100500.69;;;21.70;62.54
23427;BME280;41148;45.420;10.952;2023-05-22T06:52:06;100507.38;;;21.77;61.39
23427;BME280;41148;45.420;10.952;2023-05-22T06:54:34;100493.38;;;21.83;60.70
23427;BME280;41148;45.420;10.952;2023-05-22T06:57:02;100498.41;;;21.88;59.71
23427;BME280;41148;45.420;10.952;2023-05-22T06:59:30;100493.25;;;21.96;58.81
23427;BME280;41148;45.420;10.952;2023-05-22T07:02:04;100502.78;;;22.02;58.36
23427;BME280;41148;45.420;10.952;2023-05-22T07:04:47;100498.94;;;22.04;57.14
23427;BME280;41148;45.420;10.952;2023-05-22T07:07:22;100500.09;;;22.13;55.89
23427;BME280;41148;45.420;10.952;2023-05-22T07:09:50;100488.88;;;22.28;56.28
23427;BME280;41148;45.420;10.952;2023-05-22T07:12:17;100503.34;;;22.40;53.57
23427;BME280;41148;45.420;10.952;2023-05-22T07:14:46;100500.63;;;22.51;52.48
23427;BME280;41148;45.420;10.952;2023-05-22T07:17:13;100500.75;;;22.61;52.84
23427;BME280;41148;45.420;10.952;2023-05-22T07:19:43;100500.97;;;22.58;53.60
23427;BME280;41148;45.420;10.952;2023-05-22T07:22:11;100506.41;;;22.47;52.28
23427;BME280;41148;45.420;10.952;2023-05-22T07:24:39;100493.44;;;22.73;48.43
23427;BME280;41148;45.420;10.952;2023-05-22T07:27:07;100502.84;;;22.69;49.47
23427;BME280;41148;45.420;10.952;2023-05-22T07:29:36;100503.59;;;22.60;50.78
23427;BME280;41148;45.420;10.952;2023-05-22T07:32:05;100500.34;;;22.66;50.60
23427;BME280;41148;45.420;10.952;2023-05-22T07:34:34;100505.44;;;22.70;49.66
23427;BME280;41148;45.420;10.952;2023-05-22T07:37:07;100504.16;;;22.97;45.69
23427;BME280;41148;45.420;10.952;2023-05-22T07:39:35;100497.63;;;22.99;47.09
23427;BME280;41148;45.420;10.952;2023-05-22T07:42:04;100505.03;;;23.08;47.52
23427;BME280;41148;45.420;10.952;2023-05-22T07:44:36;100502.13;;;23.21;45.75
23427;BME280;41148;45.420;10.952;2023-05-22T07:47:04;100507.94;;;23.28;46.50
23427;BME280;41148;45.420;10.952;2023-05-22T07:49:33;100507.47;;;23.55;44.32
23427;BME280;41148;45.420;10.952;2023-05-22T07:52:01;100501.75;;;23.58;44.90
23427;BME280;41148;45.420;10.952;2023-05-22T07:54:28;100504.84;;;23.53;44.75
23427;BME280;41148;45.420;10.952;2023-05-22T07:56:56;100501.75;;;23.58;43.76
23427;BME280;41148;45.420;10.952;2023-05-22T07:59:29;100507.16;;;23.69;42.92
23427;BME280;41148;45.420;10.952;2023-05-22T08:01:58;100501.88;;;23.88;43.50
23427;BME280;41148;45.420;10.952;2023-05-22T08:04:25;100508.16;;;23.89;42.56
23427;BME280;41148;45.420;10.952;2023-05-22T08:06:54;100490.03;;;23.99;43.41
23427;BME280;41148;45.420;10.952;2023-05-22T08:09:21;100489.09;;;24.10;41.58
23427;BME280;41148;45.420;10.952;2023-05-22T08:11:49;100490.16;;;24.39;42.02
23427;BME280;41148;45.420;10.952;2023-05-22T08:14:16;100491.88;;;24.71;41.16
23427;BME280;41148;45.420;10.952;2023-05-22T08:16:44;100490.63;;;24.94;39.89
23427;BME280;41148;45.420;10.952;2023-05-22T08:19:11;100480.44;;;24.96;39.99
23427;BME280;41148;45.420;10.952;2023-05-22T08:21:39;100491.31;;;24.77;41.11
23427;BME280;41148;45.420;10.952;2023-05-22T08:24:07;100486.31;;;24.82;40.16
23427;BME280;41148;45.420;10.952;2023-05-22T08:26:35;100485.72;;;24.88;40.67
23427;BME280;41148;45.420;10.952;2023-05-22T08:29:02;100482.25;;;24.76;41.73
23427;BME280;41148;45.420;10.952;2023-05-22T08:31:30;100482.13;;;24.78;41.66
23427;BME280;41148;45.420;10.952;2023-05-22T08:34:00;100482.84;;;24.80;40.97
23427;BME280;41148;45.420;10.952;2023-05-22T08:36:32;100488.03;;;24.83;39.04
23427;BME280;41148;45.420;10.952;2023-05-22T08:39:00;100494.44;;;25.13;38.87
23427;BME280;41148;45.420;10.952;2023-05-22T08:41:28;100482.22;;;25.07;39.46
23427;BME280;41148;45.420;10.952;2023-05-22T08:43:56;100485.09;;;25.05;39.92
23427;BME280;41148;45.420;10.952;2023-05-22T08:46:24;100479.78;;;25.04;39.81
23427;BME280;41148;45.420;10.952;2023-05-22T08:48:56;100484.81;;;25.18;39.75
23427;BME280;41148;45.420;10.952;2023-05-22T08:51:28;100477.31;;;25.01;41.71
23427;BME280;41148;45.420;10.952;2023-05-22T08:53:57;100475.06;;;25.16;41.34
23427;BME280;41148;45.420;10.952;2023-05-22T08:56:26;100483.97;;;25.27;41.66
23427;BME280;41148;45.420;10.952;2023-05-22T08:58:57;100487.28;;;25.40;39.53
23427;BME280;41148;45.420;10.952;2023-05-22T09:01:27;100483.84;;;25.29;40.16
23427;BME280;41148;45.420;10.952;2023-05-22T09:03:59;100482.69;;;25.22;41.12
23427;BME280;41148;45.420;10.952;2023-05-22T09:06:28;100476.53;;;25.39;41.04
23427;BME280;41148;45.420;10.952;2023-05-22T09:08:59;100472.78;;;25.21;42.66
23427;BME280;41148;45.420;10.952;2023-05-22T09:11:27;100482.25;;;25.46;40.25
23427;BME280;41148;45.420;10.952;2023-05-22T09:14:05;100473.19;;;25.64;39.39
23427;BME280;41148;45.420;10.952;2023-05-22T09:16:46;100476.38;;;25.60;39.73
23427;BME280;41148;45.420;10.952;2023-05-22T09:19:14;100463.88;;;25.48;41.24
23427;BME280;41148;45.420;10.952;2023-05-22T09:21:42;100471.19;;;25.18;40.64
23427;BME280;41148;45.420;10.952;2023-05-22T09:24:10;100476.09;;;25.53;41.37
23427;BME280;41148;45.420;10.952;2023-05-22T09:26:39;100474.94;;;25.75;41.28
23427;BME280;41148;45.420;10.952;2023-05-22T09:29:07;100457.25;;;25.99;40.52
23427;BME280;41148;45.420;10.952;2023-05-22T09:31:42;100459.53;;;25.93;39.98
23427;BME280;41148;45.420;10.952;2023-05-22T09:34:12;100469.72;;;26.11;39.36
23427;BME280;41148;45.420;10.952;2023-05-22T09:36:43;100470.81;;;26.37;38.49
23427;BME280;41148;45.420;10.952;2023-05-22T09:39:12;100463.88;;;26.33;39.19
23427;BME280;41148;45.420;10.952;2023-05-22T09:41:40;100460.16;;;25.78;39.47
23427;BME280;41148;45.420;10.952;2023-05-22T09:44:11;100467.44;;;26.06;38.33
23427;BME280;41148;45.420;10.952;2023-05-22T09:46:44;100471.06;;;26.34;38.21
23427;BME280;41148;45.420;10.952;2023-05-22T09:49:12;100465.00;;;26.50;37.46
23427;BME280;41148;45.420;10.952;2023-05-22T09:51:44;100467.81;;;26.21;37.61
23427;BME280;41148;45.420;10.952;2023-05-22T09:54:15;100476.50;;;26.34;37.44
23427;BME280;41148;45.420;10.952;2023-05-22T09:56:49;100461.63;;;26.19;37.12
23427;BME280;41148;45.420;10.952;2023-05-22T09:59:20;100458.59;;;26.22;35.49
23427;BME280;41148;45.420;10.952;2023-05-22T10:01:53;100461.63;;;26.19;36.63
23427;BME280;41148;45.420;10.952;2023-05-22T10:04:21;100465.47;;;26.36;36.48
23427;BME280;41148;45.420;10.952;2023-05-22T10:06:50;100448.22;;;25.88;38.43
23427;BME280;41148;45.420;10.952;2023-05-22T10:09:25;100454.94;;;25.94;39.38
23427;BME280;41148;45.420;10.952;2023-05-22T10:12:01;100456.22;;;26.09;38.53
23427;BME280;41148;45.420;10.952;2023-05-22T10:14:31;100455.91;;;26.12;38.99
23427;BME280;41148;45.420;10.952;2023-05-22T10:17:00;100455.88;;;26.22;38.94
23427;BME280;41148;45.420;10.952;2023-05-22T10:19:31;100453.59;;;26.17;38.39
23427;BME280;41148;45.420;10.952;2023-05-22T10:21:59;100439.72;;;26.01;37.95
23427;BME280;41148;45.420;10.952;2023-05-22T10:24:28;100439.97;;;26.08;38.21
23427;BME280;41148;45.420;10.952;2023-05-22T10:26:56;100441.31;;;26.31;37.32
23427;BME280;41148;45.420;10.952;2023-05-22T10:29:29;100440.78;;;26.28;36.86
23427;BME280;41148;45.420;10.952;2023-05-22T10:32:13;100443.16;;;26.03;37.33
23427;BME280;41148;45.420;10.952;2023-05-22T10:37:50;100443.25;;;26.11;38.57
23427;BME280;41148;45.420;10.952;2023-05-22T10:40:22;100439.56;;;26.03;39.06
23427;BME280;41148;45.420;10.952;2023-05-22T10:42:58;100430.09;;;25.97;40.47
23427;BME280;41148;45.420;10.952;2023-05-22T10:45:27;100430.78;;;26.09;41.24
23427;BME280;41148;45.420;10.952;2023-05-22T10:48:05;100425.16;;;26.10;39.61
23427;BME280;41148;45.420;10.952;2023-05-22T10:50:34;100428.44;;;26.14;38.94
23427;BME280;41148;45.420;10.952;2023-05-22T10:55:57;100434.69;;;26.34;39.73
23427;BME280;41148;45.420;10.952;2023-05-22T10:58:30;100434.72;;;26.61;37.23
23427;BME280;41148;45.420;10.952;2023-05-22T11:04:08;100421.66;;;26.28;37.74
23427;BME280;41148;45.420;10.952;2023-05-22T11:07:03;100421.84;;;26.16;38.78
23427;BME280;41148;45.420;10.952;2023-05-22T11:09:41;100429.38;;;26.42;38.47
23427;BME280;41148;45.420;10.952;2023-05-22T11:12:22;100425.69;;;26.23;39.09
23427;BME280;41148;45.420;10.952;2023-05-22T11:14:55;100418.38;;;26.14;40.20
23427;BME280;41148;45.420;10.952;2023-05-22T11:17:25;100421.00;;;26.16;41.72
23427;BME280;41148;45.420;10.952;2023-05-22T11:20:04;100410.63;;;26.19;40.48
23427;BME280;41148;45.420;10.952;2023-05-22T11:22:39;100416.03;;;26.29;40.62
23427;BME280;41148;45.420;10.952;2023-05-22T11:25:15;100417.59;;;26.32;39.60
23427;BME280;41148;45.420;10.952;2023-05-22T11:27:45;100408.41;;;26.33;40.46
23427;BME280;41148;45.420;10.952;2023-05-22T11:30:14;100410.00;;;26.35;38.76
23427;BME280;41148;45.420;10.952;2023-05-22T11:32:43;100411.59;;;26.28;39.31
23427;BME280;41148;45.420;10.952;2023-05-22T11:35:16;100417.44;;;26.33;36.62
23427;BME280;41148;45.420;10.952;2023-05-22T11:37:45;100416.88;;;26.39;37.71
23427;BME280;41148;45.420;10.952;2023-05-22T11:40:17;100411.06;;;26.15;38.11
23427;BME280;41148;45.420;10.952;2023-05-22T11:42:45;100403.75;;;26.15;38.76
23427;BME280;41148;45.420;10.952;2023-05-22T11:45:13;100406.72;;;26.22;39.14
23427;BME280;41148;45.420;10.952;2023-05-22T11:47:41;100399.81;;;26.28;39.13
23427;BME280;41148;45.420;10.952;2023-05-22T11:50:10;100403.84;;;26.23;39.66
23427;BME280;41148;45.420;10.952;2023-05-22T11:52:56;100407.31;;;26.53;37.56
23427;BME280;41148;45.420;10.952;2023-05-22T11:55:25;100405.72;;;26.78;37.02
23427;BME280;41148;45.420;10.952;2023-05-22T11:57:54;100407.19;;;26.72;37.46
23427;BME280;41148;45.420;10.952;2023-05-22T12:00:21;100395.69;;;26.51;37.62
23427;BME280;41148;45.420;10.952;2023-05-22T12:02:49;100404.28;;;26.56;38.10
23427;BME280;41148;45.420;10.952;2023-05-22T12:05:20;100406.13;;;26.65;37.08
23427;BME280;41148;45.420;10.952;2023-05-22T12:07:47;100402.75;;;26.71;37.23
23427;BME280;41148;45.420;10.952;2023-05-22T12:10:14;100392.56;;;26.46;37.98
23427;BME280;41148;45.420;10.952;2023-05-22T12:12:42;100397.06;;;26.37;38.36
23427;BME280;41148;45.420;10.952;2023-05-22T12:15:10;100400.34;;;26.41;37.37
23427;BME280;41148;45.420;10.952;2023-05-22T12:17:38;100387.97;;;26.37;37.76
23427;BME280;41148;45.420;10.952;2023-05-22T12:20:06;100390.44;;;26.40;38.59
23427;BME280;41148;45.420;10.952;2023-05-22T12:22:39;100391.25;;;26.50;37.53
23427;BME280;41148;45.420;10.952;2023-05-22T12:25:16;100386.31;;;26.53;37.72
23427;BME280;41148;45.420;10.952;2023-05-22T12:27:44;100388.22;;;26.71;37.50
23427;BME280;41148;45.420;10.952;2023-05-22T12:30:12;100385.44;;;26.80;36.94
23427;BME280;41148;45.420;10.952;2023-05-22T12:32:46;100389.19;;;26.79;37.15
23427;BME280;41148;45.420;10.952;2023-05-22T12:35:14;100394.91;;;26.86;36.76
23427;BME280;41148;45.420;10.952;2023-05-22T12:37:50;100396.25;;;26.55;37.30
23427;BME280;41148;45.420;10.952;2023-05-22T12:40:18;100395.91;;;26.40;37.68
23427;BME280;41148;45.420;10.952;2023-05-22T12:42:46;100389.47;;;26.21;37.91
23427;BME280;41148;45.420;10.952;2023-05-22T12:45:14;100389.28;;;26.33;36.73
23427;BME280;41148;45.420;10.952;2023-05-22T12:47:43;100387.13;;;26.36;36.77
23427;BME280;41148;45.420;10.952;2023-05-22T12:50:11;100384.53;;;26.35;37.66
23427;BME280;41148;45.420;10.952;2023-05-22T12:52:39;100376.88;;;26.48;37.29
23427;BME280;41148;45.420;10.952;2023-05-22T12:55:08;100386.13;;;26.37;37.13
23427;BME280;41148;45.420;10.952;2023-05-22T12:57:35;100393.88;;;26.42;35.92
23427;BME280;41148;45.420;10.952;2023-05-22T13:00:03;100389.63;;;26.20;37.20
23427;BME280;41148;45.420;10.952;2023-05-22T13:02:32;100382.97;;;26.32;36.49
23427;BME280;41148;45.420;10.952;2023-05-22T13:05:00;100376.94;;;26.29;36.43
23427;BME280;41148;45.420;10.952;2023-05-22T13:07:27;100379.25;;;26.23;37.17
23427;BME280;41148;45.420;10.952;2023-05-22T13:09:55;100378.94;;;26.36;36.07
23427;BME280;41148;45.420;10.952;2023-05-22T13:12:22;100378.34;;;26.33;35.13
23427;BME280;41148;45.420;10.952;2023-05-22T13:14:49;100377.63;;;26.40;36.17